Time;durP1;ratioP1;P1;durP2;ratioP2;P2;SDS_P1;SDS_P2;PMS_P1;PMS_P2;Temp;Humidity;BMP_temperature;BMP_pressure;BME280_temperature;BME280_humidity;BME280_pressure;Samples;Min_cycle;Max_cycle;Signal;HPM_P1;HPM_P2
2023/05/07 00:00:18;;;;;;;33.67;27.00;;;15.60;99.90;;;;;;5012421;28;20069;-82
2023/05/07 00:02:45;;;;;;;32.70;28.15;;;15.50;99.90;;;;;;5012443;28;20037;-84
2023/05/07 00:05:11;;;;;;;34.40;27.63;;;15.50;99.90;;;;;;5012056;28;20030;-84
2023/05/07 00:07:36;;;;;;;35.92;30.27;;;15.50;99.90;;;;;;5012297;28;20425;-84
2023/05/07 00:10:03;;;;;;;37.72;30.05;;;15.60;99.90;;;;;;5012447;28;20053;-84
2023/05/07 00:12:31;;;;;;;37.92;29.55;;;15.60;99.90;;;;;;5011536;28;20113;-84
2023/05/07 00:14:57;;;;;;;35.28;29.02;;;15.60;99.90;;;;;;5012388;28;20466;-84
2023/05/07 00:17:23;;;;;;;41.08;30.50;;;15.50;99.90;;;;;;5012159;28;20026;-84
2023/05/07 00:19:48;;;;;;;34.55;30.23;;;15.50;99.90;;;;;;5011306;28;20042;-84
2023/05/07 00:22:14;;;;;;;36.17;28.95;;;15.50;99.90;;;;;;5011978;28;20037;-84
2023/05/07 00:24:39;;;;;;;33.88;29.77;;;15.50;99.90;;;;;;5011979;28;20378;-84
2023/05/07 00:27:05;;;;;;;36.08;29.85;;;15.50;99.90;;;;;;5011612;28;20022;-84
2023/05/07 00:29:30;;;;;;;36.40;30.33;;;15.50;99.90;;;;;;5011984;28;20034;-83
2023/05/07 00:31:56;;;;;;;33.88;29.27;;;15.50;99.90;;;;;;5012066;28;20066;-84
2023/05/07 00:34:22;;;;;;;35.38;27.67;;;15.60;99.90;;;;;;5011251;28;20025;-84
2023/05/07 00:36:48;;;;;;;36.88;28.30;;;15.50;99.90;;;;;;5011652;28;20026;-84
2023/05/07 00:39:13;;;;;;;34.83;26.85;;;15.50;99.90;;;;;;5012089;28;20092;-84
2023/05/07 00:41:39;;;;;;;32.17;26.83;;;15.60;99.90;;;;;;5010897;28;20581;-83
2023/05/07 00:44:04;;;;;;;30.80;27.13;;;15.60;99.90;;;;;;5012099;28;20381;-84
2023/05/07 00:46:30;;;;;;;30.55;25.90;;;15.60;99.90;;;;;;5011682;28;20029;-83
2023/05/07 00:48:57;;;;;;;29.45;24.88;;;15.60;99.90;;;;;;5011432;28;20060;-84
2023/05/07 00:51:25;;;;;;;26.42;23.60;;;15.60;99.90;;;;;;5011806;28;20033;-84
2023/05/07 00:53:50;;;;;;;27.25;23.80;;;15.60;99.90;;;;;;5011136;28;20092;-83
2023/05/07 00:56:16;;;;;;;26.67;23.77;;;15.60;99.90;;;;;;5015470;28;20474;-84
2023/05/07 00:58:42;;;;;;;28.42;23.88;;;15.60;99.90;;;;;;5015188;28;20533;-84
2023/05/07 01:01:08;;;;;;;26.33;23.52;;;15.70;99.90;;;;;;5014484;28;20026;-84
2023/05/07 01:03:33;;;;;;;29.52;24.55;;;15.60;99.90;;;;;;5014667;28;20069;-84
2023/05/07 01:06:00;;;;;;;26.73;23.75;;;15.70;99.90;;;;;;5015052;28;20105;-83
2023/05/07 01:08:29;;;;;;;26.65;24.02;;;15.50;99.90;;;;;;5014626;28;20026;-84
2023/05/07 01:10:56;;;;;;;27.73;24.92;;;15.60;99.90;;;;;;5014823;28;20042;-83
2023/05/07 01:13:22;;;;;;;28.17;25.05;;;15.50;99.90;;;;;;5015085;28;20053;-83
2023/05/07 01:15:47;;;;;;;26.23;23.23;;;15.40;99.90;;;;;;5013886;28;20363;-83
2023/05/07 01:18:13;;;;;;;29.33;23.25;;;15.40;99.90;;;;;;5015120;28;20033;-83
2023/05/07 01:20:39;;;;;;;27.58;24.65;;;15.50;99.90;;;;;;5014705;28;20029;-83
2023/05/07 01:23:07;;;;;;;26.23;22.58;;;15.50;99.90;;;;;;5014377;28;20022;-83
2023/05/07 01:25:32;;;;;;;26.90;24.00;;;15.40;99.90;;;;;;5014372;28;20426;-83
2023/05/07 01:28:00;;;;;;;25.90;23.25;;;15.40;99.90;;;;;;5014919;28;20030;-83
2023/05/07 01:30:27;;;;;;;21.52;19.45;;;15.40;99.90;;;;;;5013973;28;20037;-83
2023/05/07 01:33:13;;;;;;;21.88;19.67;;;15.50;99.90;;;;;;5014279;28;20041;-83
2023/05/07 01:35:41;;;;;;;22.38;20.17;;;15.40;99.90;;;;;;5014673;28;20026;-83
2023/05/07 01:38:08;;;;;;;21.52;19.27;;;15.40;99.90;;;;;;5013662;28;20022;-83
2023/05/07 01:40:36;;;;;;;20.00;17.90;;;15.30;99.90;;;;;;5014133;28;20618;-83
2023/05/07 01:43:03;;;;;;;24.63;19.45;;;15.40;99.90;;;;;;5013636;28;20049;-83
2023/05/07 01:45:30;;;;;;;20.45;18.38;;;15.40;99.90;;;;;;5014815;28;20152;-83
2023/05/07 01:47:57;;;;;;;21.30;19.23;;;15.40;99.90;;;;;;5014292;28;20032;-83
2023/05/07 01:50:23;;;;;;;19.75;17.92;;;15.40;99.90;;;;;;5013468;28;20474;-83
2023/05/07 01:52:50;;;;;;;19.33;17.60;;;15.40;99.90;;;;;;5014209;28;20026;-83
2023/05/07 01:55:16;;;;;;;18.90;17.02;;;15.40;99.90;;;;;;5014397;28;20029;-84
2023/05/07 01:57:41;;;;;;;18.58;16.83;;;15.40;99.90;;;;;;5013165;28;20113;-83
2023/05/07 02:00:08;;;;;;;20.58;16.70;;;15.40;99.90;;;;;;5014328;28;20069;-83
2023/05/07 02:02:34;;;;;;;18.20;16.48;;;15.40;99.90;;;;;;5013909;28;20033;-83
2023/05/07 02:05:01;;;;;;;16.27;14.90;;;15.50;99.90;;;;;;5013233;28;20378;-83
2023/05/07 02:07:26;;;;;;;17.80;16.30;;;15.40;99.90;;;;;;5014257;28;20030;-83
2023/05/07 02:09:52;;;;;;;17.02;15.50;;;15.30;99.90;;;;;;5013948;28;20492;-83
2023/05/07 02:12:17;;;;;;;17.70;16.00;;;15.40;99.90;;;;;;5013170;28;20026;-84
2023/05/07 02:14:43;;;;;;;17.17;15.68;;;15.40;99.90;;;;;;5013757;28;20033;-83
2023/05/07 02:17:08;;;;;;;15.98;14.75;;;15.30;99.90;;;;;;5013766;28;20079;-83
2023/05/07 02:19:35;;;;;;;15.48;14.18;;;15.40;99.90;;;;;;5012523;28;20111;-83
2023/05/07 02:22:00;;;;;;;15.10;13.55;;;15.40;99.90;;;;;;5013973;28;20022;-83
2023/05/07 02:24:26;;;;;;;15.25;13.95;;;15.40;99.90;;;;;;5013640;28;20030;-83
2023/05/07 02:26:51;;;;;;;14.95;13.75;;;15.30;99.90;;;;;;5012862;28;20053;-83
2023/05/07 02:29:17;;;;;;;14.75;13.35;;;15.30;99.90;;;;;;5013590;28;20022;-83
2023/05/07 02:31:42;;;;;;;14.60;13.32;;;15.20;99.90;;;;;;5013555;28;20024;-83
2023/05/07 02:34:08;;;;;;;15.90;14.48;;;15.30;99.90;;;;;;5013034;28;20022;-82
2023/05/07 02:36:33;;;;;;;16.88;13.30;;;15.30;99.90;;;;;;5013536;28;20485;-83
2023/05/07 02:38:59;;;;;;;13.73;12.63;;;15.40;99.90;;;;;;5013350;28;20573;-83
2023/05/07 02:41:24;;;;;;;13.73;12.48;;;15.40;99.90;;;;;;5012510;28;20112;-83
2023/05/07 02:43:50;;;;;;;14.48;13.07;;;15.30;99.90;;;;;;5013070;28;20041;-83
2023/05/07 02:46:15;;;;;;;13.35;12.25;;;15.40;99.90;;;;;;5012720;28;20018;-83
2023/05/07 02:48:41;;;;;;;13.27;12.23;;;15.40;99.90;;;;;;5013262;28;20366;-82
2023/05/07 02:51:06;;;;;;;12.52;11.32;;;15.40;99.90;;;;;;5013376;28;20121;-83
2023/05/07 02:53:32;;;;;;;13.15;12.05;;;15.40;99.90;;;;;;5012218;28;20028;-83
2023/05/07 02:55:59;;;;;;;12.88;11.73;;;15.40;99.90;;;;;;5013136;28;20022;-83
2023/05/07 02:58:26;;;;;;;12.82;11.88;;;15.50;99.90;;;;;;5013125;28;20038;-83
2023/05/07 03:00:52;;;;;;;12.73;11.25;;;15.50;99.90;;;;;;5012030;28;20441;-84
2023/05/07 03:03:18;;;;;;;12.65;11.48;;;15.50;99.90;;;;;;5013171;28;20117;-83
2023/05/07 03:05:43;;;;;;;13.30;12.15;;;15.40;99.90;;;;;;5012965;28;20117;-83
2023/05/07 03:08:09;;;;;;;13.30;12.02;;;15.40;99.90;;;;;;5012366;28;20033;-82
2023/05/07 03:10:36;;;;;;;13.10;12.00;;;15.50;99.90;;;;;;5012679;28;20481;-83
2023/05/07 03:13:02;;;;;;;13.93;12.52;;;16.20;99.90;;;;;;5012870;28;20100;-83
2023/05/07 03:15:27;;;;;;;13.48;12.27;;;15.80;99.90;;;;;;5012279;28;20026;-83
2023/05/07 03:17:53;;;;;;;14.98;13.50;;;15.50;99.90;;;;;;5012059;28;20022;-83
2023/05/07 03:20:18;;;;;;;13.63;12.32;;;15.50;99.90;;;;;;5013070;28;20038;-83
2023/05/07 03:22:44;;;;;;;13.35;12.00;;;15.50;99.90;;;;;;5011947;28;20052;-83
2023/05/07 03:25:10;;;;;;;13.18;12.15;;;15.50;99.90;;;;;;5012854;28;20033;-83
2023/05/07 03:27:35;;;;;;;14.43;13.23;;;15.50;99.90;;;;;;5012676;28;20022;-83
2023/05/07 03:30:01;;;;;;;14.38;13.15;;;15.50;99.90;;;;;;5011941;28;20040;-83
2023/05/07 03:32:26;;;;;;;13.68;12.38;;;15.50;99.90;;;;;;5012827;28;20046;-83
2023/05/07 03:34:52;;;;;;;13.68;12.52;;;15.50;99.90;;;;;;5012584;28;20076;-83
2023/05/07 03:37:18;;;;;;;16.33;12.68;;;15.50;99.90;;;;;;5012177;28;20077;-82
2023/05/07 03:39:44;;;;;;;13.23;12.05;;;15.50;99.90;;;;;;5012192;28;20072;-84
2023/05/07 03:42:09;;;;;;;14.38;13.20;;;15.60;99.90;;;;;;5012529;28;20062;-83
2023/05/07 03:44:36;;;;;;;12.80;11.60;;;15.70;99.90;;;;;;5011703;28;20477;-83
2023/05/07 03:47:02;;;;;;;13.57;12.55;;;15.80;99.90;;;;;;5012813;28;20029;-83
2023/05/07 03:49:27;;;;;;;15.82;12.32;;;15.70;99.90;;;;;;5011916;28;20034;-83
2023/05/07 03:51:53;;;;;;;12.88;11.68;;;15.70;99.90;;;;;;5012337;28;20025;-83
2023/05/07 03:54:19;;;;;;;13.18;12.13;;;15.70;99.90;;;;;;5012431;28;20466;-83
2023/05/07 03:56:44;;;;;;;13.65;12.30;;;15.60;99.90;;;;;;5011275;28;20022;-83
2023/05/07 03:59:10;;;;;;;14.27;12.90;;;15.70;99.90;;;;;;5012604;28;20048;-83
2023/05/07 04:01:36;;;;;;;13.95;12.60;;;15.60;99.90;;;;;;5011980;28;20063;-83
2023/05/07 04:04:02;;;;;;;13.43;12.15;;;15.60;99.90;;;;;;5011901;28;20027;-83
2023/05/07 04:06:28;;;;;;;13.48;12.35;;;15.60;99.90;;;;;;5012312;28;20030;-84
2023/05/07 04:08:54;;;;;;;14.45;13.15;;;15.60;99.90;;;;;;5012007;28;20105;-83
2023/05/07 04:11:20;;;;;;;13.90;12.63;;;15.60;99.90;;;;;;5011735;28;20470;-83
2023/05/07 04:13:45;;;;;;;13.07;11.90;;;15.60;99.90;;;;;;5012167;28;20102;-83
2023/05/07 04:16:11;;;;;;;13.07;12.05;;;15.60;99.90;;;;;;5012156;28;20474;-83
2023/05/07 04:18:36;;;;;;;13.80;12.70;;;15.60;99.90;;;;;;5011284;28;20030;-83
2023/05/07 04:21:02;;;;;;;14.68;13.35;;;15.50;99.90;;;;;;5012092;28;20033;-83
2023/05/07 04:23:28;;;;;;;13.88;12.57;;;15.50;99.90;;;;;;5012427;28;20050;-83
2023/05/07 04:25:54;;;;;;;13.55;12.15;;;15.50;99.90;;;;;;5011418;28;20555;-83
2023/05/07 04:28:20;;;;;;;14.20;12.75;;;15.60;99.90;;;;;;5013062;28;20026;-82
2023/05/07 04:30:45;;;;;;;14.20;11.90;;;15.60;99.90;;;;;;5015649;28;20057;-83
2023/05/07 04:33:11;;;;;;;14.07;12.88;;;15.50;99.90;;;;;;5015058;28;20022;-83
2023/05/07 04:35:37;;;;;;;14.45;13.02;;;15.60;99.90;;;;;;5015627;28;20117;-83
2023/05/07 04:38:02;;;;;;;13.90;12.52;;;15.70;99.90;;;;;;5015754;28;20028;-83
2023/05/07 04:40:28;;;;;;;14.75;13.27;;;15.60;99.90;;;;;;5014772;28;20038;-83
2023/05/07 04:42:54;;;;;;;14.75;13.65;;;15.50;99.90;;;;;;5015168;28;20100;-83
2023/05/07 04:45:20;;;;;;;13.57;12.45;;;15.60;99.90;;;;;;5015715;28;20022;-83
2023/05/07 04:47:45;;;;;;;15.00;13.65;;;15.50;99.90;;;;;;5014835;28;20098;-83
2023/05/07 04:50:11;;;;;;;15.35;13.98;;;15.40;99.90;;;;;;5015574;28;20137;-83
2023/05/07 04:52:37;;;;;;;15.98;14.13;;;15.40;99.90;;;;;;5015151;28;20025;-83
2023/05/07 04:55:02;;;;;;;16.33;14.55;;;15.40;99.90;;;;;;5014971;28;20473;-83
2023/05/07 04:57:28;;;;;;;15.57;14.27;;;15.40;99.90;;;;;;5015243;28;20076;-83
2023/05/07 04:59:54;;;;;;;15.90;14.40;;;15.40;99.90;;;;;;5014302;28;20110;-83
2023/05/07 05:02:20;;;;;;;17.63;16.05;;;15.40;99.90;;;;;;5015321;28;20021;-83
2023/05/07 05:04:45;;;;;;;18.77;16.45;;;15.40;99.90;;;;;;5015176;28;20104;-82
2023/05/07 05:07:11;;;;;;;18.60;16.67;;;15.40;99.90;;;;;;5014731;28;20029;-83
2023/05/07 05:09:36;;;;;;;19.23;17.50;;;15.30;99.90;;;;;;5014795;28;20025;-83
2023/05/07 05:12:02;;;;;;;18.67;16.95;;;15.40;99.90;;;;;;5015162;28;20105;-83
2023/05/07 05:14:28;;;;;;;18.98;17.23;;;15.30;99.90;;;;;;5014566;28;20517;-83
2023/05/07 05:16:53;;;;;;;20.08;18.15;;;15.40;99.90;;;;;;5014685;28;20048;-83
2023/05/07 05:19:19;;;;;;;20.33;18.38;;;15.40;99.90;;;;;;5014851;28;20045;-84
2023/05/07 05:21:44;;;;;;;21.33;19.33;;;15.30;99.90;;;;;;5014060;28;20026;-82
2023/05/07 05:24:10;;;;;;;20.45;18.52;;;15.30;99.90;;;;;;5014804;28;20110;-83
2023/05/07 05:26:35;;;;;;;21.35;19.20;;;15.40;99.90;;;;;;5014365;28;20087;-83
2023/05/07 05:29:01;;;;;;;21.70;18.00;;;15.30;99.90;;;;;;5014319;28;20350;-83
2023/05/07 05:31:26;;;;;;;21.48;19.20;;;15.30;99.90;;;;;;5014938;28;20364;-83
2023/05/07 05:33:52;;;;;;;27.42;20.17;;;15.40;99.90;;;;;;5014477;28;20552;-83
2023/05/07 05:36:17;;;;;;;24.02;19.98;;;15.40;99.90;;;;;;5014219;28;20056;-83
2023/05/07 05:38:44;;;;;;;22.95;20.45;;;15.30;99.90;;;;;;5014104;28;20038;-83
2023/05/07 05:41:10;;;;;;;23.65;21.08;;;15.30;99.90;;;;;;5013775;28;20026;-83
2023/05/07 05:43:35;;;;;;;25.15;22.40;;;15.30;99.90;;;;;;5013245;28;20133;-83
2023/05/07 05:46:01;;;;;;;27.73;23.05;;;15.80;99.90;;;;;;5014705;28;20101;-83
2023/05/07 05:48:27;;;;;;;25.85;23.15;;;15.30;99.90;;;;;;5014470;28;20110;-83
2023/05/07 05:50:52;;;;;;;26.70;23.42;;;15.30;99.90;;;;;;5013208;28;20029;-83
2023/05/07 05:53:18;;;;;;;25.77;22.92;;;15.30;99.90;;;;;;5014308;28;20026;-83
2023/05/07 05:55:44;;;;;;;25.52;22.95;;;15.30;99.90;;;;;;5013901;28;20141;-83
2023/05/07 05:58:09;;;;;;;26.42;23.27;;;15.30;99.90;;;;;;5013631;28;20033;-83
2023/05/07 06:00:35;;;;;;;26.08;23.33;;;15.90;99.90;;;;;;5014010;28;20025;-83
2023/05/07 06:03:01;;;;;;;27.65;24.85;;;15.40;99.90;;;;;;5014107;28;20513;-83
2023/05/07 06:05:26;;;;;;;25.52;22.88;;;15.40;99.90;;;;;;5013948;28;20481;-83
2023/05/07 06:07:52;;;;;;;26.30;23.50;;;15.40;99.90;;;;;;5013792;28;20169;-83
2023/05/07 06:10:17;;;;;;;26.23;23.52;;;15.30;99.90;;;;;;5013216;28;20390;-83
2023/05/07 06:12:43;;;;;;;28.00;23.83;;;15.30;99.90;;;;;;5014032;28;20036;-83
2023/05/07 06:15:09;;;;;;;25.70;22.98;;;15.30;99.90;;;;;;5014141;28;20056;-83
2023/05/07 06:17:34;;;;;;;27.35;23.73;;;15.40;99.90;;;;;;5013167;28;20504;-83
2023/05/07 06:20:00;;;;;;;25.52;22.98;;;15.50;99.90;;;;;;5014107;28;20429;-83
2023/05/07 06:22:26;;;;;;;26.25;23.45;;;15.50;99.90;;;;;;5014059;28;20421;-83
2023/05/07 06:24:51;;;;;;;25.90;23.30;;;15.50;99.90;;;;;;5012543;28;20037;-83
2023/05/07 06:27:17;;;;;;;29.17;25.10;;;15.50;99.90;;;;;;5013611;28;20081;-83
2023/05/07 06:29:42;;;;;;;26.98;24.15;;;15.50;99.90;;;;;;5013245;28;20026;-83
2023/05/07 06:32:09;;;;;;;27.30;24.55;;;15.50;99.90;;;;;;5012890;28;20028;-83
2023/05/07 06:34:35;;;;;;;28.15;23.83;;;15.50;99.90;;;;;;5013154;28;20029;-83
2023/05/07 06:37:01;;;;;;;30.48;22.77;;;15.60;99.90;;;;;;5013756;28;20030;-83
2023/05/07 06:39:26;;;;;;;28.98;24.80;;;15.70;99.90;;;;;;5013165;28;20042;-83
2023/05/07 06:41:52;;;;;;;27.30;24.42;;;15.70;99.90;;;;;;5013129;28;20853;-83
2023/05/07 06:44:17;;;;;;;29.48;25.92;;;15.70;99.90;;;;;;5013383;28;20489;-84
2023/05/07 06:46:43;;;;;;;27.58;24.67;;;15.80;99.90;;;;;;5012213;28;20033;-83
2023/05/07 06:49:08;;;;;;;28.95;25.98;;;15.80;99.90;;;;;;5013322;28;20037;-83
2023/05/07 06:51:34;;;;;;;28.27;25.25;;;15.70;99.90;;;;;;5012104;28;20041;-83
2023/05/07 06:54:00;;;;;;;31.50;25.92;;;15.80;99.90;;;;;;5012337;28;20025;-83
2023/05/07 06:56:25;;;;;;;35.35;27.92;;;15.70;99.90;;;;;;5013068;28;20055;-83
2023/05/07 06:58:51;;;;;;;30.45;26.60;;;15.70;99.90;;;;;;5013127;28;20148;-83
2023/05/07 07:01:16;;;;;;;30.48;27.08;;;15.70;99.90;;;;;;5012252;28;20018;-83
2023/05/07 07:03:42;;;;;;;31.98;28.60;;;15.60;99.90;;;;;;5012898;28;20034;-83
2023/05/07 07:06:07;;;;;;;33.30;29.52;;;15.60;99.90;;;;;;5013577;28;20466;-83
2023/05/07 07:08:34;;;;;;;30.88;27.52;;;15.60;99.90;;;;;;5012053;28;20445;-83
2023/05/07 07:11:00;;;;;;;32.97;29.50;;;15.70;99.90;;;;;;5013164;28;20108;-83
2023/05/07 07:13:25;;;;;;;35.13;30.83;;;15.70;99.90;;;;;;5012231;28;20105;-83
2023/05/07 07:15:51;;;;;;;34.67;31.08;;;15.70;99.90;;;;;;5012470;28;20119;-83
2023/05/07 07:18:17;;;;;;;40.85;33.35;;;15.70;99.90;;;;;;5012656;28;20028;-83
2023/05/07 07:20:44;;;;;;;38.45;33.60;;;15.60;99.90;;;;;;5011709;28;20030;-83
2023/05/07 07:23:09;;;;;;;35.88;31.90;;;15.60;99.90;;;;;;5012725;28;20030;-83
2023/05/07 07:25:35;;;;;;;34.15;30.52;;;15.60;99.90;;;;;;5012427;28;20026;-83
2023/05/07 07:28:01;;;;;;;37.78;32.20;;;15.70;99.90;;;;;;5011956;28;20076;-83
2023/05/07 07:30:26;;;;;;;36.53;32.20;;;15.70;99.90;;;;;;5012625;28;20112;-83
2023/05/07 07:32:52;;;;;;;32.75;29.45;;;15.70;99.90;;;;;;5012380;28;20045;-83
2023/05/07 07:35:18;;;;;;;36.95;30.95;;;15.70;99.90;;;;;;5012268;28;20026;-83
2023/05/07 07:37:43;;;;;;;36.85;30.35;;;15.70;99.90;;;;;;5012181;28;20111;-83
2023/05/07 07:40:10;;;;;;;35.03;29.58;;;15.70;99.90;;;;;;5012641;28;20621;-83
2023/05/07 07:42:35;;;;;;;35.22;31.38;;;15.80;99.90;;;;;;5011466;28;20046;-83
2023/05/07 07:45:01;;;;;;;36.40;30.58;;;15.80;99.90;;;;;;5012349;28;20378;-83
2023/05/07 07:47:26;;;;;;;31.65;28.30;;;15.80;99.90;;;;;;5012294;28;20030;-83
2023/05/07 07:49:52;;;;;;;34.35;29.30;;;15.90;99.90;;;;;;5011355;28;20038;-83
2023/05/07 07:52:18;;;;;;;32.70;29.10;;;16.00;99.90;;;;;;5012226;28;20021;-83
2023/05/07 07:54:44;;;;;;;32.97;29.50;;;15.90;99.90;;;;;;5012197;28;20034;-83
2023/05/07 07:57:10;;;;;;;31.63;28.23;;;15.90;99.90;;;;;;5011709;28;20528;-83
2023/05/07 07:59:35;;;;;;;34.45;28.42;;;15.90;99.90;;;;;;5012130;28;20042;-83
2023/05/07 08:02:01;;;;;;;31.77;27.40;;;15.90;99.90;;;;;;5012567;28;20026;-83
2023/05/07 08:04:26;;;;;;;28.52;25.45;;;15.90;99.90;;;;;;5014864;28;20443;-83
2023/05/07 08:06:54;;;;;;;29.55;26.63;;;16.00;99.90;;;;;;5016204;28;20033;-84
2023/05/07 08:09:19;;;;;;;30.83;26.45;;;16.00;99.90;;;;;;5016239;28;20026;-83
2023/05/07 08:11:45;;;;;;;31.50;27.25;;;16.00;99.90;;;;;;5015171;28;20084;-84
2023/05/07 08:14:11;;;;;;;28.30;25.30;;;16.10;99.90;;;;;;5016264;28;20026;-83
2023/05/07 08:16:37;;;;;;;27.17;24.15;;;16.10;99.90;;;;;;5016106;28;20042;-83
2023/05/07 08:19:03;;;;;;;26.98;23.88;;;16.20;99.90;;;;;;5015674;28;20099;-83
2023/05/07 08:21:28;;;;;;;27.20;24.38;;;16.20;99.90;;;;;;5016001;28;20436;-83
2023/05/07 08:23:54;;;;;;;28.27;24.48;;;16.30;99.90;;;;;;5015363;28;20034;-84
2023/05/07 08:26:20;;;;;;;26.45;23.70;;;16.30;99.90;;;;;;5015916;28;20022;-84
2023/05/07 08:28:45;;;;;;;26.48;23.92;;;16.30;99.90;;;;;;5015697;28;20041;-83
2023/05/07 08:31:11;;;;;;;26.33;23.48;;;16.30;99.90;;;;;;5015136;28;20371;-83
2023/05/07 08:33:38;;;;;;;25.60;21.83;;;16.40;99.90;;;;;;5015493;28;20038;-83
2023/05/07 08:36:04;;;;;;;25.10;22.55;;;16.40;99.90;;;;;;5015699;28;20425;-84
2023/05/07 08:38:30;;;;;;;25.08;22.48;;;16.40;99.90;;;;;;5015215;28;20033;-83
2023/05/07 08:40:55;;;;;;;25.52;22.52;;;16.40;99.90;;;;;;5015624;28;20034;-84
2023/05/07 08:43:23;;;;;;;26.20;22.67;;;16.40;99.90;;;;;;5015423;28;20100;-84
2023/05/07 08:45:52;;;;;;;24.63;20.52;;;16.40;99.90;;;;;;5014650;28;20028;-83
2023/05/07 08:48:17;;;;;;;23.70;21.30;;;16.40;99.90;;;;;;5015762;28;20100;-83
2023/05/07 08:50:43;;;;;;;23.05;20.63;;;16.40;99.90;;;;;;5015099;28;20129;-84
2023/05/07 08:53:09;;;;;;;26.27;20.98;;;16.40;99.90;;;;;;5015133;28;20021;-83
2023/05/07 08:55:34;;;;;;;23.25;20.98;;;16.50;99.90;;;;;;5015346;28;20084;-83
2023/05/07 08:58:01;;;;;;;23.77;21.33;;;16.60;99.90;;;;;;5015509;28;20022;-83
2023/05/07 09:00:26;;;;;;;22.33;20.00;;;16.60;99.90;;;;;;5014659;28;20121;-83
2023/05/07 09:02:53;;;;;;;21.42;19.23;;;16.60;99.90;;;;;;5014976;28;20108;-84
2023/05/07 09:05:19;;;;;;;21.48;18.55;;;16.60;99.90;;;;;;5015181;28;20026;-83
2023/05/07 09:07:46;;;;;;;20.33;18.17;;;16.70;99.90;;;;;;5014319;28;20026;-83
2023/05/07 09:10:12;;;;;;;20.33;18.17;;;16.70;99.90;;;;;;5015249;28;20363;-84
2023/05/07 09:12:38;;;;;;;21.05;18.48;;;16.80;99.90;;;;;;5014777;28;20124;-84
2023/05/07 09:15:05;;;;;;;18.30;16.38;;;16.90;99.90;;;;;;5013329;28;20044;-83
2023/05/07 09:17:31;;;;;;;21.05;17.15;;;16.80;99.90;;;;;;5015375;28;20022;-84
2023/05/07 09:20:01;;;;;;;19.13;17.23;;;16.90;99.90;;;;;;5014311;28;20048;-83
2023/05/07 09:22:26;;;;;;;19.77;17.50;;;16.90;99.90;;;;;;5015048;28;20382;-84
2023/05/07 09:24:52;;;;;;;15.75;14.35;;;17.00;99.90;;;;;;5014510;28;20041;-84
2023/05/07 09:27:18;;;;;;;15.55;13.10;;;17.30;99.90;;;;;;5014298;28;20414;-84
2023/05/07 09:29:44;;;;;;;15.57;13.85;;;17.10;99.90;;;;;;5014734;28;20515;-84
2023/05/07 09:32:10;;;;;;;18.50;13.65;;;17.10;99.90;;;;;;5014641;28;20057;-84
2023/05/07 09:34:36;;;;;;;16.17;12.85;;;17.20;99.90;;;;;;5013502;28;20072;-84
2023/05/07 09:37:03;;;;;;;13.43;12.02;;;17.30;99.90;;;;;;5014755;28;20030;-83
2023/05/07 09:39:46;;;;;;;13.90;12.45;;;17.30;99.90;;;;;;5014660;28;20037;-84
2023/05/07 09:42:12;;;;;;;14.13;12.65;;;17.40;99.90;;;;;;5013824;28;20446;-84
2023/05/07 09:44:38;;;;;;;13.38;12.07;;;17.40;99.90;;;;;;5014230;28;20100;-84
2023/05/07 09:47:07;;;;;;;14.95;11.93;;;17.30;99.90;;;;;;5014637;28;20169;-84
2023/05/07 09:49:39;;;;;;;14.32;12.73;;;17.40;99.90;;;;;;5013415;28;20029;-84
2023/05/07 09:52:08;;;;;;;15.82;13.15;;;17.40;99.90;;;;;;5014396;28;20034;-84
2023/05/07 09:54:35;;;;;;;12.73;11.45;;;17.40;99.90;;;;;;5014190;28;20048;-83
2023/05/07 09:57:02;;;;;;;14.57;12.85;;;17.40;99.90;;;;;;5013844;28;20153;-84
2023/05/07 09:59:31;;;;;;;15.30;13.50;;;17.40;99.90;;;;;;5014353;28;20041;-84
2023/05/07 10:01:58;;;;;;;15.23;12.88;;;17.40;99.90;;;;;;5014284;28;20022;-84
2023/05/07 10:04:26;;;;;;;14.70;13.20;;;17.50;99.90;;;;;;5013467;28;20037;-83
2023/05/07 10:06:53;;;;;;;20.73;11.82;;;17.40;99.90;;;;;;5013827;28;20582;-84
2023/05/07 10:09:19;;;;;;;15.68;12.45;;;17.40;99.90;;;;;;5013195;28;20025;-84
2023/05/07 10:11:46;;;;;;;15.32;12.73;;;17.40;99.90;;;;;;5013549;28;20037;-83
2023/05/07 10:14:13;;;;;;;11.77;10.68;;;17.40;99.90;;;;;;5013965;28;20022;-84
2023/05/07 10:16:38;;;;;;;13.25;11.70;;;17.50;99.90;;;;;;5013006;28;20030;-83
2023/05/07 10:19:05;;;;;;;17.90;13.10;;;17.40;99.90;;;;;;5013929;28;20042;-84
2023/05/07 10:21:32;;;;;;;14.20;12.88;;;17.50;99.90;;;;;;5013782;28;20033;-84
2023/05/07 10:23:59;;;;;;;14.38;12.43;;;17.60;99.90;;;;;;5012924;28;20580;-84
2023/05/07 10:26:27;;;;;;;13.57;11.40;;;17.60;99.90;;;;;;5013580;28;20061;-84
2023/05/07 10:28:59;;;;;;;14.13;11.65;;;17.60;99.90;;;;;;5013341;28;20034;-84
2023/05/07 10:31:46;;;;;;;14.93;11.82;;;17.70;99.90;;;;;;5013071;28;20033;-84
2023/05/07 10:34:20;;;;;;;13.50;10.77;;;17.80;99.90;;;;;;5013532;28;20022;-84
2023/05/07 10:36:49;;;;;;;11.55;10.35;;;17.90;99.90;;;;;;5013081;28;20486;-84
2023/05/07 10:39:14;;;;;;;13.73;11.55;;;17.80;99.90;;;;;;5012553;28;20524;-83
2023/05/07 10:41:40;;;;;;;11.65;10.45;;;17.90;99.90;;;;;;5012873;28;20030;-84
2023/05/07 10:44:06;;;;;;;12.80;10.30;;;18.40;99.90;;;;;;5013561;28;20034;-84
2023/05/07 10:46:35;;;;;;;10.30;9.40;;;18.10;99.90;;;;;;5012636;28;20100;-84
2023/05/07 10:49:00;;;;;;;12.23;10.30;;;18.20;99.90;;;;;;5013186;28;20050;-84
2023/05/07 10:51:26;;;;;;;12.40;10.00;;;18.10;99.90;;;;;;5012474;28;20097;-84
2023/05/07 10:54:10;;;;;;;12.23;11.07;;;18.20;99.90;;;;;;5013151;28;20306;-84
2023/05/07 10:56:41;;;;;;;12.57;11.02;;;18.30;99.90;;;;;;5012966;28;20026;-84
2023/05/07 10:59:30;;;;;;;;;;;18.10;99.90;;;;;;5013210;28;20038;-84
2023/05/07 11:02:09;;;;;;;12.73;11.48;;;18.10;99.90;;;;;;5012702;28;20000;-84
2023/05/07 11:04:35;;;;;;;12.27;11.10;;;18.30;99.90;;;;;;5013090;28;20050;-84
2023/05/07 11:07:06;;;;;;;12.95;11.65;;;18.30;99.90;;;;;;5012574;28;20486;-84
2023/05/07 11:09:51;;;;;;;12.32;11.23;;;18.40;99.90;;;;;;5012799;28;20021;-84
2023/05/07 11:12:35;;;;;;;13.23;11.50;;;18.40;99.90;;;;;;5013115;28;20426;-84
2023/05/07 11:15:04;;;;;;;13.80;12.50;;;18.40;99.90;;;;;;5012762;28;20486;-84
2023/05/07 11:17:34;;;;;;;13.27;12.07;;;18.40;99.90;;;;;;5012841;28;20026;-84
2023/05/07 11:20:01;;;;;;;14.65;13.35;;;19.00;99.90;;;;;;5012308;28;20091;-84
2023/05/07 11:22:34;;;;;;;13.50;11.85;;;18.50;99.90;;;;;;5012759;28;20022;-84
2023/05/07 11:25:01;;;;;;;14.68;12.40;;;18.50;99.90;;;;;;5012622;28;20030;-84
2023/05/07 11:27:27;;;;;;;14.55;13.13;;;18.50;99.90;;;;;;5011897;28;20425;-84
2023/05/07 11:29:52;;;;;;;14.77;13.45;;;18.40;99.90;;;;;;5012382;28;20480;-83
2023/05/07 11:32:32;;;;;;;15.00;13.60;;;18.40;99.90;;;;;;5012708;28;20018;-84
2023/05/07 11:34:59;;;;;;;16.10;13.63;;;18.40;99.90;;;;;;5011869;28;20029;-84
2023/05/07 11:37:26;;;;;;;15.48;13.80;;;18.40;99.90;;;;;;5012017;28;20061;-84
2023/05/07 11:40:06;;;;;;;15.27;13.90;;;18.40;99.90;;;;;;5011961;28;20048;-85
2023/05/07 11:42:42;;;;;;;14.77;13.35;;;18.40;99.90;;;;;;5011468;28;20077;-84
2023/05/07 11:45:09;;;;;;;17.02;12.98;;;18.40;99.90;;;;;;5012309;28;20044;-84
2023/05/07 11:47:35;;;;;;;15.43;14.05;;;18.30;99.90;;;;;;5011902;28;20053;-84
2023/05/07 11:50:08;;;;;;;14.23;12.80;;;18.40;99.90;;;;;;5011534;28;20030;-84
2023/05/07 11:52:35;;;;;;;13.95;9.90;;;18.30;99.90;;;;;;5012354;28;20076;-84
2023/05/07 11:55:03;;;;;;;10.55;9.25;;;18.30;99.90;;;;;;5011639;28;20034;-84
2023/05/07 11:57:29;;;;;;;10.02;8.85;;;18.40;99.90;;;;;;5012306;28;20088;-84
2023/05/07 11:59:55;;;;;;;9.07;7.78;;;18.50;99.90;;;;;;5012510;28;20041;-84
2023/05/07 12:02:21;;;;;;;10.15;7.28;;;18.50;99.90;;;;;;5011712;28;20114;-84
2023/05/07 12:04:47;;;;;;;11.50;7.97;;;18.60;99.90;;;;;;5012278;28;20121;-84
2023/05/07 12:07:13;;;;;;;13.93;8.45;;;18.70;99.90;;;;;;5012346;28;20072;-84
2023/05/07 12:09:43;;;;;;;11.10;9.32;;;18.70;99.90;;;;;;5011046;28;20022;-84
2023/05/07 12:12:09;;;;;;;10.23;8.70;;;18.80;99.90;;;;;;5011949;28;20030;-84
2023/05/07 12:14:41;;;;;;;11.70;8.98;;;18.70;99.90;;;;;;5011872;28;20037;-84
2023/05/07 12:17:11;;;;;;;10.98;8.02;;;18.80;99.90;;;;;;5011561;28;20120;-84
2023/05/07 12:19:38;;;;;;;10.30;8.05;;;18.80;99.90;;;;;;5012103;28;20145;-84
2023/05/07 12:22:05;;;;;;;12.05;7.43;;;18.80;99.90;;;;;;5012218;28;20064;-84
2023/05/07 12:25:09;;;;;;;11.35;8.25;;;18.60;99.90;;;;;;5011466;28;20033;-84